createdAt,value
2019-03-28T00:01:47.779Z,16.47
2019-03-28T00:04:17.426Z,16.27
2019-03-28T00:06:47.121Z,14.40
2019-03-28T00:09:16.818Z,13.40
2019-03-28T00:11:46.506Z,14.03
2019-03-28T00:14:16.246Z,14.03
2019-03-28T00:16:45.978Z,14.70
2019-03-28T00:19:15.627Z,12.27
2019-03-28T00:21:45.450Z,16.80
2019-03-28T00:24:22.881Z,12.67
2019-03-28T00:26:52.639Z,15.87
2019-03-28T00:29:22.413Z,17.07
2019-03-28T00:31:52.131Z,16.30
2019-03-28T00:34:22.089Z,16.47
2019-03-28T00:36:51.807Z,19.17
2019-03-28T00:39:21.463Z,16.73
2019-03-28T00:41:51.114Z,17.30
2019-03-28T00:44:20.838Z,18.80
2019-03-28T00:46:50.507Z,16.63
2019-03-28T00:49:20.195Z,19.93
2019-03-28T00:51:50.379Z,16.67
2019-03-28T00:54:20.082Z,20.20
2019-03-28T00:56:50.108Z,15.57
2019-03-28T00:59:19.816Z,20.07
2019-03-28T01:01:49.506Z,21.13
2019-03-28T01:04:19.156Z,18.63
2019-03-28T01:06:49.128Z,18.97
2019-03-28T01:09:18.787Z,17.53
2019-03-28T01:11:48.470Z,18.50
2019-03-28T01:14:18.146Z,20.37
2019-03-28T01:16:47.839Z,19.60
2019-03-28T01:19:17.442Z,22.37
2019-03-28T01:21:47.089Z,16.53
2019-03-28T01:24:16.767Z,16.30
2019-03-28T01:26:56.778Z,21.70
2019-03-28T01:29:17.759Z,18.97
2019-03-28T01:31:47.414Z,20.57
2019-03-28T01:34:17.128Z,19.40
2019-03-28T01:36:46.844Z,18.87
2019-03-28T01:39:16.503Z,18.27
2019-03-28T01:41:46.198Z,19.33
2019-03-28T01:44:16.034Z,19.37
2019-03-28T01:46:45.723Z,16.87
2019-03-28T01:49:15.447Z,16.93
2019-03-28T01:51:45.234Z,22.17
2019-03-28T01:54:14.879Z,18.70
2019-03-28T01:56:44.558Z,20.40
2019-03-28T01:59:14.225Z,21.97
2019-03-28T02:01:43.855Z,21.43
2019-03-28T02:04:13.523Z,19.43
2019-03-28T02:06:43.169Z,21.33
2019-03-28T02:09:12.885Z,22.43
2019-03-28T02:11:42.567Z,21.87
2019-03-28T02:14:12.433Z,24.00
2019-03-28T02:16:42.303Z,21.70
2019-03-28T02:19:11.984Z,20.70
2019-03-28T02:21:41.674Z,22.60
2019-03-28T02:24:11.379Z,23.90
2019-03-28T02:26:41.022Z,22.43
2019-03-28T02:29:10.686Z,22.67
2019-03-28T02:31:40.342Z,21.80
2019-03-28T02:34:10.054Z,25.27
2019-03-28T02:36:39.724Z,21.67
2019-03-28T02:39:09.514Z,25.90
2019-03-28T02:41:39.208Z,27.23
2019-03-28T02:44:08.853Z,24.73
2019-03-28T02:46:38.534Z,25.27
2019-03-28T02:49:08.289Z,22.80
2019-03-28T02:51:37.929Z,23.40
2019-03-28T02:54:07.619Z,23.43
2019-03-28T02:56:37.331Z,26.03
2019-03-28T02:59:07.634Z,25.50
2019-03-28T03:01:37.424Z,22.67
2019-03-28T03:04:07.104Z,23.13
2019-03-28T03:06:36.767Z,29.97
2019-03-28T03:09:09.807Z,28.97
2019-03-28T03:11:42.618Z,28.13
2019-03-28T03:14:11.883Z,23.63
2019-03-28T03:16:42.021Z,27.73
2019-03-28T03:19:11.708Z,27.03
2019-03-28T03:21:41.463Z,30.20
2019-03-28T03:24:11.147Z,29.03
2019-03-28T03:26:40.896Z,28.30
2019-03-28T03:29:10.689Z,29.37
2019-03-28T03:31:40.330Z,29.30
2019-03-28T03:34:09.977Z,29.60
2019-03-28T03:36:39.730Z,30.33
2019-03-28T03:39:10.142Z,30.77
2019-03-28T03:41:40.027Z,31.77
2019-03-28T03:44:09.659Z,28.17
2019-03-28T03:46:39.381Z,28.60
2019-03-28T03:49:09.351Z,31.00
2019-03-28T03:51:39.148Z,27.83
2019-03-28T03:54:08.866Z,32.87
2019-03-28T03:56:38.858Z,35.80
2019-03-28T03:59:08.546Z,30.03
2019-03-28T04:01:38.240Z,30.37
2019-03-28T04:04:07.955Z,33.00
2019-03-28T04:06:37.601Z,32.40
2019-03-28T04:09:07.880Z,36.00
2019-03-28T04:11:37.558Z,31.83
2019-03-28T04:14:07.236Z,34.73
2019-03-28T04:16:36.903Z,35.17
2019-03-28T04:19:07.485Z,34.87
2019-03-28T04:21:37.328Z,35.20
2019-03-28T04:24:06.994Z,33.50
2019-03-28T04:26:36.720Z,32.63
2019-03-28T04:30:05.150Z,34.83
2019-03-28T04:32:30.211Z,35.70
2019-03-28T04:35:00.419Z,37.15
2019-03-28T04:37:32.890Z,34.50
2019-03-28T04:40:04.129Z,34.17
2019-03-28T04:42:55.440Z,35.77
2019-03-28T04:45:39.016Z,38.77
2019-03-28T04:48:11.968Z,38.77
2019-03-28T04:50:45.910Z,35.53
2019-03-28T04:53:15.588Z,31.67
2019-03-28T04:55:45.308Z,35.57
2019-03-28T04:58:14.993Z,34.17
2019-03-28T05:00:45.093Z,35.37
2019-03-28T05:03:15.251Z,34.37
2019-03-28T05:05:44.983Z,35.67
2019-03-28T05:08:14.680Z,36.27
2019-03-28T05:10:44.414Z,32.57
2019-03-28T05:13:14.098Z,33.87
2019-03-28T05:15:43.922Z,32.20
2019-03-28T05:18:13.667Z,37.30
2019-03-28T05:20:43.405Z,35.83
2019-03-28T05:23:13.094Z,33.73
2019-03-28T05:25:42.831Z,37.13
2019-03-28T05:28:12.596Z,37.27
2019-03-28T05:30:43.233Z,34.03
2019-03-28T05:33:13.237Z,37.07
2019-03-28T05:35:42.921Z,33.33
2019-03-28T05:38:12.645Z,37.37
2019-03-28T05:40:42.365Z,36.83
2019-03-28T05:43:12.259Z,37.63
2019-03-28T05:45:42.189Z,36.10
2019-03-28T05:48:11.889Z,37.93
2019-03-28T05:50:41.589Z,36.93
2019-03-28T05:53:11.282Z,40.57
2019-03-28T05:55:41.031Z,34.90
2019-03-28T05:58:10.804Z,40.30
2019-03-28T06:00:40.953Z,39.47
2019-03-28T06:03:10.785Z,39.60
2019-03-28T06:05:40.557Z,38.90
2019-03-28T06:08:10.300Z,41.87
2019-03-28T06:10:40.011Z,43.10
2019-03-28T06:13:09.702Z,36.60
2019-03-28T06:15:41.035Z,41.53
2019-03-28T06:18:11.036Z,37.10
2019-03-28T06:20:40.861Z,39.03
2019-03-28T06:23:10.689Z,40.70
2019-03-28T06:25:41.311Z,38.10
2019-03-28T06:28:11.187Z,38.07
2019-03-28T06:30:40.901Z,40.53
2019-03-28T06:33:10.979Z,36.17
2019-03-28T06:35:40.827Z,39.93
2019-03-28T06:38:10.589Z,36.80
2019-03-28T06:40:40.289Z,41.80
2019-03-28T06:43:09.983Z,39.27
2019-03-28T06:45:39.647Z,37.17
2019-03-28T06:48:09.713Z,36.03
2019-03-28T06:50:39.378Z,37.10
2019-03-28T06:53:09.470Z,40.07
2019-03-28T06:55:39.149Z,39.47
2019-03-28T06:58:08.841Z,35.57
2019-03-28T07:00:38.563Z,39.77
2019-03-28T07:03:08.263Z,40.30
2019-03-28T07:05:37.966Z,40.27
2019-03-28T07:08:07.662Z,36.57
2019-03-28T07:10:37.300Z,39.63
2019-03-28T07:13:06.949Z,35.70
2019-03-28T07:15:36.997Z,34.27
2019-03-28T07:18:06.798Z,35.20
2019-03-28T07:20:36.524Z,33.70
2019-03-28T07:23:06.264Z,31.07
2019-03-28T07:25:35.941Z,33.30
2019-03-28T07:28:06.522Z,29.70
2019-03-28T07:30:36.317Z,28.23
2019-03-28T07:33:06.095Z,27.50
2019-03-28T07:35:35.736Z,29.00
2019-03-28T07:38:05.429Z,27.67
2019-03-28T07:40:35.068Z,28.40
2019-03-28T07:43:04.769Z,27.37
2019-03-28T07:45:34.702Z,28.97
2019-03-28T07:48:04.643Z,27.40
2019-03-28T07:50:34.405Z,27.07
2019-03-28T07:53:04.205Z,23.83
2019-03-28T07:55:33.846Z,23.83
2019-03-28T07:58:03.501Z,24.47
2019-03-28T08:00:33.220Z,25.70
2019-03-28T08:03:02.969Z,24.60
2019-03-28T08:05:32.674Z,21.90
2019-03-28T08:08:02.407Z,26.87
2019-03-28T08:10:32.222Z,22.00
2019-03-28T08:13:02.458Z,21.00
2019-03-28T08:15:32.405Z,24.80
2019-03-28T08:18:02.461Z,20.97
2019-03-28T08:20:32.140Z,20.47
2019-03-28T08:23:01.835Z,24.17
2019-03-28T08:25:31.502Z,23.53
2019-03-28T08:28:01.217Z,20.17
2019-03-28T08:30:40.466Z,20.13
2019-03-28T08:33:10.315Z,18.97
2019-03-28T08:35:40.180Z,17.80
2019-03-28T08:38:10.498Z,17.90
2019-03-28T08:40:41.694Z,19.47
2019-03-28T08:43:11.645Z,19.37
2019-03-28T08:45:41.329Z,19.50
2019-03-28T08:48:11.011Z,19.50
2019-03-28T08:50:40.954Z,16.50
2019-03-28T08:53:10.632Z,18.10
2019-03-28T08:55:40.289Z,17.13
2019-03-28T08:58:09.917Z,16.93
2019-03-28T09:00:51.465Z,17.03
2019-03-28T09:03:11.112Z,17.60
2019-03-28T09:05:40.769Z,16.00
2019-03-28T09:08:10.469Z,16.30
2019-03-28T09:10:40.150Z,15.13
2019-03-28T09:13:09.802Z,13.80
2019-03-28T09:15:44.087Z,17.10
2019-03-28T09:18:10.787Z,13.30
2019-03-28T09:20:40.489Z,12.50
2019-03-28T09:23:10.187Z,15.17
2019-03-28T09:25:39.818Z,15.57
2019-03-28T09:28:09.499Z,18.73
2019-03-28T09:30:48.868Z,19.23
2019-03-28T09:33:11.941Z,16.47
2019-03-28T09:35:42.759Z,16.57
2019-03-28T09:38:12.693Z,16.23
2019-03-28T09:40:42.334Z,15.17
2019-03-28T09:43:12.022Z,14.77
2019-03-28T09:45:41.952Z,16.13
2019-03-28T09:48:12.213Z,15.97
2019-03-28T09:50:41.996Z,20.03
2019-03-28T09:53:11.679Z,15.83
2019-03-28T09:55:41.429Z,17.40
2019-03-28T09:58:11.073Z,20.03
2019-03-28T10:00:40.776Z,18.60
2019-03-28T10:03:10.872Z,16.93
2019-03-28T10:05:40.527Z,16.03
2019-03-28T10:08:22.838Z,17.03
2019-03-28T10:10:41.884Z,16.93
2019-03-28T10:13:11.695Z,13.77
2019-03-28T10:15:41.404Z,13.67
2019-03-28T10:18:11.219Z,13.93
2019-03-28T10:20:40.898Z,12.80
2019-03-28T10:23:10.533Z,14.07
2019-03-28T10:25:40.645Z,13.17
2019-03-28T10:28:10.463Z,12.73
2019-03-28T10:30:41.666Z,13.40
2019-03-28T10:33:11.324Z,11.73
2019-03-28T10:35:41.114Z,11.47
2019-03-28T10:38:10.867Z,13.00
2019-03-28T10:40:40.523Z,13.50
2019-03-28T10:43:10.235Z,13.57
2019-03-28T10:45:39.865Z,10.63
2019-03-28T10:48:09.690Z,10.23
2019-03-28T10:50:43.881Z,10.97
2019-03-28T10:53:10.886Z,11.07
2019-03-28T10:55:40.510Z,17.17
2019-03-28T10:58:18.410Z,10.43
2019-03-28T11:00:41.746Z,11.50
2019-03-28T11:03:11.508Z,10.97
2019-03-28T11:05:41.170Z,12.20
2019-03-28T11:08:10.812Z,10.03
2019-03-28T11:10:40.497Z,11.17
2019-03-28T11:13:10.160Z,9.73
2019-03-28T11:15:39.804Z,8.30
2019-03-28T11:18:09.476Z,10.37
2019-03-28T11:20:40.094Z,9.20
2019-03-28T11:23:10.075Z,13.60
2019-03-28T11:25:39.746Z,10.17
2019-03-28T11:28:09.399Z,10.17
2019-03-28T11:30:39.049Z,16.10
2019-03-28T11:33:08.698Z,10.93
2019-03-28T11:35:38.392Z,9.03
2019-03-28T11:38:09.574Z,14.00
2019-03-28T11:40:42.806Z,11.07
2019-03-28T11:43:11.121Z,8.23
2019-03-28T11:45:40.902Z,10.13
2019-03-28T11:48:10.530Z,9.30
2019-03-28T11:50:40.294Z,9.50
2019-03-28T11:53:10.059Z,9.93
2019-03-28T11:55:39.723Z,9.57
2019-03-28T11:58:09.343Z,8.80
2019-03-28T12:00:39.034Z,11.70
2019-03-28T12:03:08.765Z,8.27
2019-03-28T12:05:38.429Z,5.43
2019-03-28T12:08:08.112Z,6.47
2019-03-28T12:10:38.793Z,8.03
2019-03-28T12:13:08.607Z,9.00
2019-03-28T12:15:38.311Z,7.87
2019-03-28T12:18:08.009Z,13.20
2019-03-28T12:20:37.699Z,10.67
2019-03-28T12:23:07.356Z,11.10
2019-03-28T12:25:37.017Z,9.63
2019-03-28T12:28:06.727Z,10.83
2019-03-28T12:30:36.519Z,13.93
2019-03-28T12:33:06.153Z,12.73
2019-03-28T12:35:35.884Z,11.30
2019-03-28T12:38:05.543Z,12.90
2019-03-28T12:40:35.313Z,10.80
2019-03-28T12:43:04.989Z,9.10
2019-03-28T12:45:34.780Z,10.47
2019-03-28T12:48:04.410Z,8.63
2019-03-28T12:50:34.070Z,9.23
2019-03-28T12:53:03.737Z,8.03
2019-03-28T12:55:33.440Z,10.43
2019-03-28T12:58:03.088Z,9.37
2019-03-28T13:00:36.706Z,7.50
2019-03-28T13:03:06.395Z,7.53
2019-03-28T13:05:36.224Z,7.63
2019-03-28T13:08:06.036Z,7.43
2019-03-28T13:10:35.674Z,8.20
2019-03-28T13:13:05.394Z,9.20
2019-03-28T13:15:35.049Z,11.00
2019-03-28T13:18:04.788Z,8.63
2019-03-28T13:20:34.660Z,8.33
2019-03-28T13:23:04.356Z,9.70
2019-03-28T13:25:34.164Z,8.40
2019-03-28T13:28:03.819Z,7.50
2019-03-28T13:30:33.492Z,9.60
2019-03-28T13:33:03.143Z,8.57
2019-03-28T13:35:35.133Z,8.27
2019-03-28T13:38:04.665Z,6.43
2019-03-28T13:40:34.333Z,7.27
2019-03-28T13:43:04.644Z,9.03
2019-03-28T13:45:34.649Z,6.40
2019-03-28T13:48:04.386Z,9.10
2019-03-28T13:50:34.187Z,8.03
2019-03-28T13:53:03.857Z,10.30
2019-03-28T13:55:33.535Z,9.90
2019-03-28T13:58:03.182Z,9.03
2019-03-28T14:00:34.149Z,8.23
2019-03-28T14:03:04.064Z,8.67
2019-03-28T14:05:33.769Z,9.87
2019-03-28T14:08:03.396Z,9.27
2019-03-28T14:10:33.165Z,11.57
2019-03-28T14:13:02.890Z,14.27
2019-03-28T14:15:32.540Z,42.30
2019-03-28T14:18:02.173Z,10.73
2019-03-28T14:20:31.857Z,29.67
2019-03-28T14:23:01.532Z,12.63
2019-03-28T14:25:31.277Z,9.67
2019-03-28T14:28:00.930Z,7.43
2019-03-28T14:30:30.633Z,8.93
2019-03-28T14:33:11.294Z,9.20
2019-03-28T14:35:31.866Z,6.87
2019-03-28T14:38:01.567Z,10.10
2019-03-28T14:40:31.264Z,7.23
2019-03-28T14:43:00.987Z,8.13
2019-03-28T14:45:30.783Z,10.90
2019-03-28T14:48:00.646Z,9.47
2019-03-28T14:50:37.982Z,8.87
2019-03-28T14:53:07.823Z,10.13
2019-03-28T14:55:37.507Z,8.80
2019-03-28T14:58:08.148Z,8.27
2019-03-28T15:00:48.552Z,9.60
2019-03-28T15:03:27.191Z,11.90
2019-03-28T15:05:49.827Z,13.23
2019-03-28T15:08:19.523Z,10.67
2019-03-28T15:10:49.344Z,10.47
2019-03-28T15:13:19.297Z,7.43
2019-03-28T15:15:51.089Z,10.97
2019-03-28T15:18:20.959Z,14.33
2019-03-28T15:20:51.142Z,12.27
2019-03-28T15:23:21.181Z,14.47
2019-03-28T15:25:50.970Z,18.57
2019-03-28T15:28:20.760Z,8.60
2019-03-28T15:30:50.765Z,13.27
2019-03-28T15:33:20.739Z,11.60
2019-03-28T15:35:50.419Z,10.20
2019-03-28T15:38:20.076Z,13.43
2019-03-28T15:40:49.944Z,15.33
2019-03-28T15:43:19.810Z,16.20
2019-03-28T15:45:49.757Z,11.97
2019-03-28T15:48:19.417Z,11.07
2019-03-28T15:50:49.187Z,12.40
2019-03-28T15:53:18.993Z,10.33
2019-03-28T15:55:48.872Z,10.00
2019-03-28T15:58:23.524Z,8.37
2019-03-28T16:00:50.366Z,8.70
2019-03-28T16:03:19.918Z,10.10
2019-03-28T16:05:58.040Z,7.63
2019-03-28T16:08:21.070Z,12.80
2019-03-28T16:10:50.780Z,15.37
2019-03-28T16:13:22.665Z,12.77
2019-03-28T16:15:52.420Z,15.23
2019-03-28T16:18:22.652Z,12.40
2019-03-28T16:20:53.518Z,19.83
2019-03-28T16:23:23.294Z,15.97
2019-03-28T16:25:52.973Z,8.60
2019-03-28T16:28:22.640Z,16.10
2019-03-28T16:30:52.319Z,9.13
2019-03-28T16:33:40.812Z,12.80
2019-03-28T16:36:10.544Z,9.17
2019-03-28T16:38:40.536Z,27.40
2019-03-28T16:41:10.196Z,22.37
2019-03-28T16:43:39.823Z,18.20
2019-03-28T16:46:09.669Z,8.47
2019-03-28T16:48:39.291Z,9.90
2019-03-28T16:51:09.072Z,10.70
2019-03-28T16:53:38.953Z,7.80
2019-03-28T16:56:08.694Z,18.33
2019-03-28T16:58:38.594Z,15.73
2019-03-28T17:01:08.360Z,22.67
2019-03-28T17:03:38.363Z,16.33
2019-03-28T17:06:08.588Z,10.87
2019-03-28T17:08:38.538Z,11.90
2019-03-28T17:11:08.254Z,8.33
2019-03-28T17:13:38.132Z,12.60
2019-03-28T17:16:08.381Z,8.80
2019-03-28T17:18:38.410Z,11.10
2019-03-28T17:21:08.273Z,10.13
2019-03-28T17:23:41.439Z,10.07
2019-03-28T17:26:11.235Z,9.67
2019-03-28T17:28:40.875Z,9.83
2019-03-28T17:31:11.092Z,13.37
2019-03-28T17:33:43.186Z,14.43
2019-03-28T17:36:13.061Z,12.33
2019-03-28T17:38:42.912Z,14.97
2019-03-28T17:41:12.998Z,13.17
2019-03-28T17:43:47.915Z,12.70
2019-03-28T17:46:18.573Z,11.03
2019-03-28T17:48:48.346Z,10.10
2019-03-28T17:51:18.071Z,9.50
2019-03-28T17:53:47.807Z,11.93
2019-03-28T17:56:17.472Z,13.60
2019-03-28T17:58:47.181Z,26.23
2019-03-28T18:01:16.885Z,16.00
2019-03-28T18:03:46.524Z,14.10
2019-03-28T18:06:16.300Z,10.13
2019-03-28T18:08:47.318Z,19.00
2019-03-28T18:11:17.148Z,13.17
2019-03-28T18:13:46.807Z,8.63
2019-03-28T18:16:16.465Z,10.13
2019-03-28T18:18:46.087Z,9.73
2019-03-28T18:21:15.878Z,7.97
2019-03-28T18:23:45.544Z,7.80
2019-03-28T18:26:15.218Z,8.20
2019-03-28T18:28:44.933Z,10.50
2019-03-28T18:31:14.615Z,10.93
2019-03-28T18:33:44.318Z,10.50
2019-03-28T18:36:14.072Z,8.40
2019-03-28T18:38:43.761Z,8.77
2019-03-28T18:41:13.780Z,8.97
2019-03-28T18:43:43.564Z,11.20
2019-03-28T18:46:16.514Z,8.30
2019-03-28T18:48:46.293Z,8.40
2019-03-28T18:51:16.106Z,7.60
2019-03-28T18:53:46.584Z,8.70
2019-03-28T18:56:16.339Z,8.53
2019-03-28T18:58:46.020Z,10.53
2019-03-28T19:01:15.879Z,7.73
2019-03-28T19:03:45.617Z,9.07
2019-03-28T19:06:16.854Z,11.87
2019-03-28T19:08:46.686Z,10.77
2019-03-28T19:11:16.350Z,10.07
2019-03-28T19:13:46.034Z,9.63
2019-03-28T19:16:15.997Z,8.40
2019-03-28T19:18:48.655Z,7.50
2019-03-28T19:21:18.466Z,9.97
2019-03-28T19:23:48.222Z,7.33
2019-03-28T19:26:18.190Z,9.80
2019-03-28T19:28:48.294Z,8.43
2019-03-28T19:31:18.470Z,7.70
2019-03-28T19:33:48.927Z,9.63
2019-03-28T19:36:19.332Z,11.73
2019-03-28T19:38:49.633Z,12.93
2019-03-28T19:41:19.472Z,14.43
2019-03-28T19:43:50.104Z,16.00
2019-03-28T19:46:20.381Z,13.37
2019-03-28T19:48:50.512Z,10.93
2019-03-28T19:51:20.477Z,10.63
2019-03-28T19:53:50.328Z,9.53
2019-03-28T19:56:20.858Z,9.27
2019-03-28T19:58:51.260Z,10.33
2019-03-28T20:01:21.181Z,13.80
2019-03-28T20:03:52.388Z,12.80
2019-03-28T20:06:24.270Z,10.23
2019-03-28T20:08:54.611Z,10.50
2019-03-28T20:11:24.458Z,9.27
2019-03-28T20:13:54.448Z,11.33
2019-03-28T20:16:24.475Z,10.30
2019-03-28T20:18:54.623Z,9.83
2019-03-28T20:21:24.553Z,14.03
2019-03-28T20:23:56.723Z,13.90
2019-03-28T20:26:26.725Z,14.33
2019-03-28T20:28:56.697Z,13.40
2019-03-28T20:31:26.524Z,10.90
2019-03-28T20:33:56.804Z,12.20
2019-03-28T20:36:37.432Z,9.97
2019-03-28T20:39:04.145Z,10.30
2019-03-28T20:41:29.548Z,11.00
2019-03-28T20:43:59.204Z,11.93
2019-03-28T20:46:29.091Z,14.33
2019-03-28T20:48:59.004Z,12.00
2019-03-28T20:51:28.709Z,10.17
2019-03-28T20:53:58.518Z,11.60
2019-03-28T20:56:28.213Z,10.37
2019-03-28T20:58:57.890Z,10.37
2019-03-28T21:01:27.530Z,9.73
2019-03-28T21:03:57.506Z,10.13
2019-03-28T21:06:27.207Z,13.13
2019-03-28T21:08:56.910Z,10.37
2019-03-28T21:11:29.430Z,9.20
2019-03-28T21:13:58.331Z,9.13
2019-03-28T21:16:27.999Z,10.90
2019-03-28T21:18:57.641Z,12.40
2019-03-28T21:21:27.320Z,11.13
2019-03-28T21:23:56.968Z,10.63
2019-03-28T21:26:26.694Z,9.80
2019-03-28T21:28:56.419Z,10.23
2019-03-28T21:31:26.051Z,10.07
2019-03-28T21:33:55.685Z,9.93
2019-03-28T21:36:30.243Z,14.87
2019-03-28T21:38:56.992Z,17.23
2019-03-28T21:41:26.761Z,11.97
2019-03-28T21:43:56.908Z,13.60
2019-03-28T21:46:26.579Z,10.93
2019-03-28T21:48:56.244Z,12.30
2019-03-28T21:51:26.311Z,11.40
2019-03-28T21:53:56.032Z,11.30
2019-03-28T21:56:25.832Z,13.80
2019-03-28T21:58:56.217Z,13.03
2019-03-28T22:01:26.562Z,11.67
2019-03-28T22:03:56.344Z,12.00
2019-03-28T22:06:26.106Z,12.50
2019-03-28T22:08:55.929Z,10.90
2019-03-28T22:11:25.595Z,12.93
2019-03-28T22:13:55.364Z,9.67
2019-03-28T22:16:25.076Z,11.50
2019-03-28T22:18:54.904Z,11.97
2019-03-28T22:21:27.259Z,11.40
2019-03-28T22:23:55.936Z,16.63
2019-03-28T22:26:25.669Z,12.23
2019-03-28T22:28:55.338Z,12.90
2019-03-28T22:31:25.108Z,11.97
2019-03-28T22:33:54.701Z,13.07
2019-03-28T22:36:24.357Z,15.10
2019-03-28T22:38:54.122Z,16.70
2019-03-28T22:41:23.842Z,16.47
2019-03-28T22:43:53.615Z,15.30
2019-03-28T22:46:23.284Z,16.90
2019-03-28T22:48:52.929Z,16.83
2019-03-28T22:51:22.618Z,32.57
2019-03-28T22:53:52.290Z,48.93
2019-03-28T22:56:21.956Z,47.10
2019-03-28T22:58:51.629Z,39.60
2019-03-28T23:01:21.274Z,28.80
2019-03-28T23:03:50.945Z,27.57
2019-03-28T23:06:20.642Z,30.50
2019-03-28T23:08:50.325Z,41.10
2019-03-28T23:11:20.160Z,37.67
2019-03-28T23:13:49.855Z,38.13
2019-03-28T23:16:19.611Z,36.90
2019-03-28T23:18:49.295Z,32.37
2019-03-28T23:21:19.035Z,34.00
2019-03-28T23:23:48.701Z,22.63
2019-03-28T23:26:18.353Z,22.57
2019-03-28T23:28:48.019Z,23.03
2019-03-28T23:31:17.696Z,26.40
2019-03-28T23:33:47.332Z,27.63
2019-03-28T23:36:17.107Z,34.33
2019-03-28T23:38:46.784Z,50.23
2019-03-28T23:41:16.427Z,55.90
2019-03-28T23:43:46.222Z,60.77
2019-03-28T23:46:16.252Z,104.63
2019-03-28T23:48:45.941Z,129.23
2019-03-28T23:51:15.587Z,102.67
2019-03-28T23:53:45.306Z,107.57
2019-03-28T23:56:15.147Z,84.37
2019-03-28T23:58:45.214Z,70.80
